Time;durP1;ratioP1;P1;durP2;ratioP2;P2;SDS_P1;SDS_P2;PMS_P1;PMS_P2;Temp;Humidity;BMP_temperature;BMP_pressure;BME280_temperature;BME280_humidity;BME280_pressure;Samples;Min_cycle;Max_cycle;Signal;HPM_P1;HPM_P2
2022/11/20 00:01:40;;;;;;;19.05;14.43;;;;;;;4.36;71.15;99756.63;10574639;28;20095;-72
2022/11/20 00:06:41;;;;;;;15.00;12.30;;;;;;;4.31;70.95;99748.16;10558428;27;20047;-71
2022/11/20 00:11:43;;;;;;;13.05;11.65;;;;;;;4.28;71.24;99748.38;10567432;28;20047;-72
2022/11/20 00:16:44;;;;;;;16.42;13.60;;;;;;;4.37;71.33;99752.22;10528643;28;20044;-71
2022/11/20 00:21:45;;;;;;;15.77;12.98;;;;;;;4.24;70.97;99731.03;10528562;28;20404;-69
2022/11/20 00:26:47;;;;;;;17.67;14.10;;;;;;;4.31;71.11;99768.38;10530193;28;20079;-72
2022/11/20 00:31:48;;;;;;;14.23;12.70;;;;;;;4.31;70.72;99752.56;10517496;28;20666;-69
2022/11/20 00:36:49;;;;;;;16.00;13.80;;;;;;;4.27;70.04;99764.25;10525524;28;20056;-70
2022/11/20 00:41:51;;;;;;;16.00;13.77;;;;;;;4.28;70.76;99747.50;10521511;28;20055;-73
2022/11/20 00:46:52;;;;;;;15.93;13.55;;;;;;;4.29;70.96;99749.19;10525250;28;20044;-70
2022/11/20 00:51:53;;;;;;;15.82;13.52;;;;;;;4.28;69.79;99727.28;10526221;28;20051;-71
2022/11/20 00:56:55;;;;;;;17.02;14.40;;;;;;;4.32;70.68;99727.91;10524080;28;20608;-72
2022/11/20 01:01:56;;;;;;;15.10;13.23;;;;;;;4.35;70.18;99735.63;10529262;27;20797;-71
2022/11/20 01:06:57;;;;;;;19.08;16.10;;;;;;;4.25;70.10;99725.69;10529873;27;20055;-71
2022/11/20 01:12:00;;;;;;;15.95;13.43;;;;;;;4.31;71.13;99742.03;10504905;28;20100;-71
2022/11/20 01:17:01;;;;;;;15.77;14.15;;;;;;;4.38;70.72;99738.06;10529641;28;20047;-70
2022/11/20 01:22:02;;;;;;;17.83;15.45;;;;;;;4.31;71.50;99736.75;10522861;28;20048;-72
2022/11/20 01:27:04;;;;;;;17.25;14.50;;;;;;;4.31;72.06;99732.34;10523017;28;20043;-70
2022/11/20 01:32:05;;;;;;;15.85;14.02;;;;;;;4.24;72.35;99725.78;10525855;28;20046;-71
2022/11/20 01:37:06;;;;;;;18.10;14.48;;;;;;;4.19;72.64;99728.69;10525573;28;20046;-71
2022/11/20 01:47:39;;;;;;;18.88;15.65;;;;;;;4.15;73.69;99719.28;10524025;28;20043;-70
2022/11/20 01:52:45;;;;;;;16.23;13.98;;;;;;;4.27;73.72;99722.94;10519860;28;20035;-70
2022/11/20 01:57:48;;;;;;;17.38;14.95;;;;;;;4.25;74.20;99715.13;10522166;28;20040;-72
2022/11/20 02:02:57;;;;;;;16.63;13.90;;;;;;;4.47;74.29;99726.09;10522342;28;20970;-71
2022/11/20 02:08:00;;;;;;;19.27;15.32;;;;;;;4.29;74.31;99714.94;10511645;28;20047;-70
2022/11/20 02:18:23;;;;;;;16.02;13.82;;;;;;;4.31;74.52;99711.28;10516866;28;20737;-70
2022/11/20 02:23:56;;;;;;;16.52;14.80;;;;;;;4.27;74.78;99725.56;10527653;28;20050;-73
2022/11/20 02:28:58;;;;;;;16.38;14.38;;;;;;;4.09;74.92;99703.88;10532173;28;20059;-71
2022/11/20 02:34:00;;;;;;;16.33;14.00;;;;;;;4.09;75.04;99695.97;10524558;28;20052;-72
2022/11/20 02:39:03;;;;;;;16.95;14.65;;;;;;;4.18;75.04;99697.19;10524228;28;20043;-70
2022/11/20 02:44:05;;;;;;;16.63;13.18;;;;;;;4.14;74.69;99706.22;10528225;28;20055;-69
2022/11/20 02:49:06;;;;;;;14.25;12.77;;;;;;;4.08;74.91;99689.00;10508262;28;20108;-70
2022/11/20 02:54:08;;;;;;;16.80;13.45;;;;;;;3.99;74.91;99686.94;10527082;28;20048;-71
2022/11/20 02:59:09;;;;;;;14.50;13.00;;;;;;;3.99;74.94;99702.75;10522860;28;20043;-70
2022/11/20 03:04:11;;;;;;;15.00;13.40;;;;;;;4.00;75.21;99720.25;10528258;28;20044;-71
2022/11/20 03:09:12;;;;;;;15.77;13.95;;;;;;;3.96;74.93;99714.31;10526102;27;20059;-71
2022/11/20 03:14:14;;;;;;;16.67;13.43;;;;;;;3.85;74.37;99699.16;10529410;28;20052;-70
2022/11/20 03:19:15;;;;;;;17.55;15.00;;;;;;;3.81;74.24;99705.56;10525256;28;20044;-72
2022/11/20 03:24:17;;;;;;;18.77;15.75;;;;;;;3.78;74.22;99674.16;10528331;27;20048;-70
2022/11/20 03:29:18;;;;;;;18.27;15.20;;;;;;;3.89;74.62;99703.31;10526368;28;20573;-70
2022/11/20 03:34:20;;;;;;;16.85;14.90;;;;;;;3.92;74.12;99698.78;10528085;28;20441;-71
2022/11/20 03:39:21;;;;;;;17.90;15.30;;;;;;;3.86;74.99;99697.41;10527372;28;20057;-71
2022/11/20 03:44:23;;;;;;;18.65;16.45;;;;;;;3.91;74.19;99691.84;10572577;27;20047;-70
2022/11/20 03:49:25;;;;;;;17.20;15.02;;;;;;;3.89;74.83;99700.69;10526048;28;20130;-69
2022/11/20 03:54:26;;;;;;;19.27;16.00;;;;;;;3.80;73.99;99695.97;10540925;28;20048;-72
2022/11/20 03:59:27;;;;;;;18.80;15.40;;;;;;;3.76;74.46;99683.94;10558117;28;20050;-70
2022/11/20 04:04:29;;;;;;;18.83;15.52;;;;;;;3.74;74.00;99690.22;10513514;28;20047;-71
2022/11/20 04:09:30;;;;;;;17.33;14.57;;;;;;;3.74;74.24;99658.63;10532471;28;20074;-69
2022/11/20 04:14:31;;;;;;;18.33;16.17;;;;;;;3.92;74.49;99672.47;10524057;27;20051;-70
2022/11/20 04:19:33;;;;;;;17.13;15.15;;;;;;;3.89;74.04;99679.63;10527895;28;20046;-70
2022/11/20 04:24:34;;;;;;;17.38;15.25;;;;;;;3.94;73.86;99673.22;10508487;28;20056;-71
2022/11/20 04:29:35;;;;;;;15.93;14.23;;;;;;;3.89;74.43;99669.09;10524349;27;20055;-70
2022/11/20 04:34:37;;;;;;;17.67;15.70;;;;;;;3.75;74.88;99661.19;10525986;28;20129;-71
2022/11/20 04:39:38;;;;;;;17.90;14.80;;;;;;;3.73;74.87;99676.22;10509723;27;20047;-70
2022/11/20 04:44:39;;;;;;;17.52;14.63;;;;;;;3.74;74.78;99675.31;10530845;28;20062;-71
2022/11/20 04:49:41;;;;;;;16.30;13.68;;;;;;;3.72;75.11;99672.75;10522835;28;20301;-71
2022/11/20 04:54:42;;;;;;;18.25;13.57;;;;;;;3.94;74.54;99660.06;10531914;28;20056;-70
2022/11/20 04:59:44;;;;;;;16.70;14.80;;;;;;;3.82;75.40;99654.59;10524714;28;20470;-70
2022/11/20 05:04:46;;;;;;;16.50;14.07;;;;;;;3.85;75.30;99651.78;10518463;28;20055;-71
2022/11/20 05:09:47;;;;;;;17.65;13.90;;;;;;;3.85;75.15;99658.84;10529841;28;20707;-72
2022/11/20 05:14:48;;;;;;;18.48;15.60;;;;;;;3.76;75.33;99641.81;10525642;28;20093;-71
2022/11/20 05:19:50;;;;;;;18.25;14.18;;;;;;;4.01;75.38;99656.09;10529161;27;20142;-71
2022/11/20 05:24:53;;;;;;;18.33;15.75;;;;;;;4.13;74.69;99649.19;10526144;28;20059;-71
2022/11/20 05:29:54;;;;;;;21.90;17.30;;;;;;;4.04;75.11;99655.91;10522973;28;20056;-71
2022/11/20 05:34:56;;;;;;;24.15;18.45;;;;;;;4.02;75.33;99647.25;10534680;28;20048;-70
2022/11/20 05:39:57;;;;;;;18.25;15.02;;;;;;;4.22;75.31;99654.75;10559708;28;20052;-70
2022/11/20 05:45:00;;;;;;;17.15;14.73;;;;;;;4.43;74.04;99639.34;10519009;28;20047;-70
2022/11/20 05:50:02;;;;;;;18.73;15.15;;;;;;;4.31;74.66;99658.56;10522075;28;20414;-73
2022/11/20 05:55:03;;;;;;;21.77;17.95;;;;;;;4.05;75.72;99647.91;10520994;28;20058;-72
2022/11/20 06:00:05;;;;;;;20.02;16.35;;;;;;;4.01;75.95;99656.09;10499171;28;20048;-70
2022/11/20 06:05:07;;;;;;;19.65;15.30;;;;;;;4.04;76.21;99640.09;10513741;28;20980;-69
2022/11/20 06:10:09;;;;;;;18.05;15.20;;;;;;;4.08;76.26;99646.84;10520138;28;20596;-71
2022/11/20 06:15:10;;;;;;;19.30;15.07;;;;;;;4.03;75.98;99643.69;10509797;28;20051;-70
2022/11/20 06:20:12;;;;;;;20.42;15.57;;;;;;;4.07;75.88;99650.44;10524941;28;20124;-72
2022/11/20 06:25:13;;;;;;;18.80;15.52;;;;;;;4.10;75.48;99655.53;10574225;28;20048;-72
2022/11/20 06:30:15;;;;;;;21.40;16.35;;;;;;;4.08;75.24;99644.22;10507974;27;20050;-72
2022/11/20 06:35:16;;;;;;;24.70;18.70;;;;;;;3.97;75.80;99638.78;10508614;28;20673;-70
2022/11/20 06:40:18;;;;;;;24.40;17.13;;;;;;;3.95;75.93;99645.94;10507271;28;20160;-70
2022/11/20 06:45:19;;;;;;;22.58;16.88;;;;;;;3.94;75.70;99658.25;10500701;28;20052;-71
2022/11/20 06:50:20;;;;;;;23.50;17.88;;;;;;;3.76;75.77;99643.63;10508059;28;20047;-71
2022/11/20 06:55:22;;;;;;;24.10;17.60;;;;;;;3.84;76.73;99663.28;10512514;28;20126;-70
2022/11/20 07:00:23;;;;;;;25.45;18.05;;;;;;;3.86;76.54;99666.63;10509808;28;20109;-69
2022/11/20 07:05:25;;;;;;;27.42;18.58;;;;;;;3.72;76.66;99650.84;10494855;28;20520;-68
2022/11/20 07:10:26;;;;;;;27.25;20.42;;;;;;;3.83;77.34;99655.47;10510667;28;20040;-67
2022/11/20 07:15:28;;;;;;;29.35;20.55;;;;;;;3.80;77.64;99647.72;10507504;28;20048;-67
2022/11/20 07:20:29;;;;;;;28.58;19.58;;;;;;;3.73;78.32;99636.75;10496187;28;20058;-70
2022/11/20 07:25:31;;;;;;;29.35;20.08;;;;;;;3.66;78.93;99661.75;10509603;28;20052;-70
2022/11/20 07:30:32;;;;;;;30.27;20.77;;;;;;;3.69;79.76;99653.66;10503991;27;20049;-68
2022/11/20 07:35:33;;;;;;;28.65;21.50;;;;;;;3.71;79.11;99649.16;10510159;28;20154;-68
2022/11/20 07:40:35;;;;;;;28.98;21.05;;;;;;;3.77;79.97;99654.06;10526543;28;20070;-72
2022/11/20 07:45:36;;;;;;;26.83;18.65;;;;;;;3.68;80.11;99654.63;10551732;28;20067;-70
2022/11/20 07:50:37;;;;;;;25.92;18.92;;;;;;;3.74;81.16;99648.97;10518484;27;20302;-73
2022/11/20 07:55:39;;;;;;;24.38;19.73;;;;;;;3.84;81.17;99658.00;10537184;28;20436;-70
2022/11/20 08:00:41;;;;;;;25.95;18.92;;;;;;;3.88;81.49;99659.47;10541027;28;20139;-70
2022/11/20 08:05:42;;;;;;;26.50;18.48;;;;;;;3.97;81.65;99675.66;10547529;28;20336;-70
2022/11/20 08:10:43;;;;;;;25.85;19.13;;;;;;;4.04;81.41;99684.88;10522273;28;20054;-70
2022/11/20 08:15:50;;;;;;;24.55;18.15;;;;;;;4.25;81.17;99680.88;10528305;28;20111;-72
2022/11/20 08:20:51;;;;;;;24.60;18.45;;;;;;;4.39;80.69;99676.53;10536346;28;20048;-70
2022/11/20 08:25:52;;;;;;;25.02;18.73;;;;;;;4.49;80.70;99690.81;10531570;28;20202;-68
2022/11/20 08:30:59;;;;;;;24.27;17.98;;;;;;;4.57;80.27;99685.88;10507905;28;20607;-69
2022/11/20 08:36:02;;;;;;;27.65;19.67;;;;;;;4.78;79.09;99688.06;10505120;28;20044;-70
2022/11/20 08:41:23;;;;;;;28.55;19.48;;;;;;;4.74;79.17;99702.41;10499252;28;20054;-71
2022/11/20 08:46:26;;;;;;;27.20;18.35;;;;;;;4.80;79.52;99702.00;10499168;27;20696;-71
2022/11/20 08:51:27;;;;;;;28.60;20.25;;;;;;;4.83;79.13;99704.44;10501248;28;20055;-73
2022/11/20 08:56:29;;;;;;;28.90;20.13;;;;;;;4.70;80.03;99716.72;10504430;28;20063;-71
2022/11/20 09:01:30;;;;;;;26.60;18.90;;;;;;;4.77;80.17;99703.06;10505372;28;20043;-70
2022/11/20 09:06:32;;;;;;;27.63;20.10;;;;;;;4.82;79.13;99704.53;10501010;27;20779;-68
2022/11/20 09:11:34;;;;;;;26.00;19.45;;;;;;;5.05;79.09;99708.31;10499610;28;20059;-69
2022/11/20 09:16:36;;;;;;;29.95;22.30;;;;;;;5.11;79.05;99700.81;10493857;28;20048;-72
2022/11/20 09:21:37;;;;;;;29.02;20.42;;;;;;;5.17;79.45;99709.28;10502633;28;20370;-68
2022/11/20 09:26:38;;;;;;;27.25;20.20;;;;;;;5.24;79.45;99719.34;10505580;28;20051;-70
2022/11/20 09:31:40;;;;;;;30.42;22.95;;;;;;;5.36;80.01;99719.44;10497896;28;20093;-68
2022/11/20 09:36:41;;;;;;;30.63;23.05;;;;;;;5.78;78.96;99715.69;10500460;28;20052;-69
2022/11/20 09:41:49;;;;;;;36.20;28.27;;;;;;;6.08;78.28;99711.88;10501202;28;20040;-69
2022/11/20 09:47:09;;;;;;;55.17;43.67;;;;;;;6.18;76.97;99706.78;10500416;28;20054;-70
2022/11/20 09:52:18;;;;;;;28.13;21.05;;;;;;;6.17;77.25;99708.59;10504993;28;20048;-72
2022/11/20 09:57:29;;;;;;;73.45;51.33;;;;;;;6.09;76.83;99691.59;10492296;28;20054;-71
2022/11/20 10:02:40;;;;;;;30.58;23.92;;;;;;;6.24;77.30;99697.56;10502835;28;20056;-70
2022/11/20 10:08:10;;;;;;;41.35;31.00;;;;;;;6.55;75.97;99689.13;10498338;28;20040;-71
2022/11/20 10:13:27;;;;;;;51.38;36.67;;;;;;;6.44;76.74;99683.78;10492604;28;20056;-72
2022/11/20 10:18:51;;;;;;;26.40;21.17;;;;;;;6.35;77.36;99680.00;10513962;28;20360;-72
2022/11/20 10:24:03;;;;;;;26.70;19.90;;;;;;;6.43;76.69;99671.50;10549639;28;20044;-71
2022/11/20 10:29:13;;;;;;;23.42;18.50;;;;;;;6.30;75.93;99684.75;10523207;28;20059;-69
2022/11/20 10:34:28;;;;;;;24.95;20.50;;;;;;;5.97;78.02;99672.97;10517919;28;20048;-70
2022/11/20 10:39:40;;;;;;;23.48;19.30;;;;;;;5.97;78.94;99678.28;10531788;28;20135;-70
2022/11/20 10:45:01;;;;;;;22.60;17.75;;;;;;;6.08;79.09;99672.25;10525151;28;20048;-69
2022/11/20 10:50:13;;;;;;;25.08;19.65;;;;;;;6.13;78.81;99666.63;10483637;28;20162;-70
2022/11/20 10:55:40;;;;;;;22.48;18.55;;;;;;;6.27;77.90;99658.53;10499241;28;20105;-70
2022/11/20 11:00:42;;;;;;;20.23;16.17;;;;;;;6.34;77.79;99658.97;10499770;28;20055;-70
2022/11/20 11:06:06;;;;;;;21.17;17.15;;;;;;;6.27;77.73;99649.78;10499629;28;20924;-71
2022/11/20 11:11:20;;;;;;;21.30;16.65;;;;;;;6.27;78.35;99650.63;10485878;28;20044;-71
2022/11/20 11:16:24;;;;;;;22.15;18.35;;;;;;;6.29;79.19;99640.78;10496656;28;20084;-72
2022/11/20 11:21:26;;;;;;;24.15;19.77;;;;;;;6.33;78.69;99642.22;10497294;28;20048;-70
2022/11/20 11:26:28;;;;;;;23.83;18.77;;;;;;;6.42;78.29;99645.19;10509729;28;20647;-70
2022/11/20 11:31:33;;;;;;;20.10;15.50;;;;;;;6.45;77.88;99635.22;10498289;28;20055;-71
2022/11/20 11:36:35;;;;;;;20.73;16.60;;;;;;;6.53;78.69;99621.44;10501060;28;20048;-69
2022/11/20 11:41:37;;;;;;;21.98;17.60;;;;;;;6.46;77.02;99612.28;10504578;28;20083;-71
2022/11/20 11:46:43;;;;;;;22.63;17.52;;;;;;;6.53;77.80;99621.44;10502724;28;20047;-71
2022/11/20 11:52:16;;;;;;;23.15;18.95;;;;;;;6.74;77.77;99613.72;10501047;28;20426;-70
2022/11/20 11:57:36;;;;;;;22.70;17.75;;;;;;;6.82;76.65;99615.78;10501251;28;20078;-72
2022/11/20 12:02:40;;;;;;;21.73;18.20;;;;;;;6.77;76.31;99604.69;10499292;27;20062;-71
2022/11/20 12:07:53;;;;;;;23.88;19.08;;;;;;;6.96;76.19;99594.41;10497489;28;20418;-68
2022/11/20 12:13:01;;;;;;;21.90;17.23;;;;;;;7.54;73.27;99593.53;10489228;28;20132;-70
2022/11/20 12:18:14;;;;;;;23.73;19.33;;;;;;;8.42;69.82;99589.16;10493001;28;20051;-69
2022/11/20 12:23:35;;;;;;;26.52;19.83;;;;;;;7.93;71.97;99580.75;10495031;27;20157;-68
2022/11/20 12:28:56;;;;;;;25.05;21.05;;;;;;;7.34;73.73;99577.41;10479565;28;20051;-68
2022/11/20 12:34:12;;;;;;;24.17;21.45;;;;;;;7.35;76.00;99579.06;10495206;28;20051;-70
2022/11/20 12:39:27;;;;;;;31.60;25.30;;;;;;;7.22;76.69;99586.28;10503097;28;20051;-69
2022/11/20 12:45:10;;;;;;;28.45;20.98;;;;;;;7.06;77.88;99594.56;10500264;27;20048;-71
2022/11/20 12:50:27;;;;;;;27.10;22.35;;;;;;;6.96;78.39;99580.34;10497829;28;20694;-68
2022/11/20 12:55:51;;;;;;;26.88;22.38;;;;;;;6.91;78.39;99583.34;10495762;28;20047;-68
2022/11/20 13:01:04;;;;;;;27.33;20.90;;;;;;;6.77;78.25;99578.25;10499250;28;20044;-68
2022/11/20 13:06:14;;;;;;;28.52;21.88;;;;;;;6.59;79.24;99568.09;10498519;28;20688;-71
2022/11/20 13:11:27;;;;;;;27.27;21.77;;;;;;;6.55;80.15;99578.06;10476101;28;20044;-69
2022/11/20 13:16:53;;;;;;;31.10;22.67;;;;;;;6.57;80.20;99554.13;10487375;28;22535;-68
2022/11/20 13:21:55;;;;;;;28.08;21.88;;;;;;;6.54;80.87;99559.66;10495608;28;20058;-70
2022/11/20 13:27:12;;;;;;;31.95;24.63;;;;;;;6.51;80.97;99549.31;10498248;28;20463;-71
2022/11/20 13:32:17;;;;;;;27.63;21.30;;;;;;;6.45;80.71;99545.31;10495937;28;20047;-67
2022/11/20 13:37:36;;;;;;;21.52;19.02;;;;;;;6.46;81.24;99530.31;10512420;28;20045;-71
2022/11/20 13:43:19;;;;;;;22.75;18.83;;;;;;;6.47;81.28;99524.91;10519978;28;20155;-72
2022/11/20 13:48:23;;;;;;;25.33;17.70;;;;;;;6.55;82.01;99524.34;10484586;28;20052;-69
2022/11/20 13:54:01;;;;;;;21.40;17.63;;;;;;;6.64;81.43;99522.81;10485850;28;20052;-68
2022/11/20 13:59:26;;;;;;;20.08;16.83;;;;;;;6.47;81.95;99516.13;10486424;28;20051;-70
2022/11/20 14:04:34;;;;;;;19.73;17.07;;;;;;;6.37;82.38;99516.81;10492593;28;20054;-74
2022/11/20 14:09:36;;;;;;;19.23;15.57;;;;;;;6.36;82.26;99517.78;10474245;28;20085;-72
2022/11/20 14:14:47;;;;;;;20.50;15.27;;;;;;;6.25;81.86;99517.75;10492984;28;20206;-69
2022/11/20 14:19:50;;;;;;;18.70;15.52;;;;;;;6.13;82.63;99514.19;10496117;28;20044;-69
2022/11/20 14:25:12;;;;;;;17.88;14.60;;;;;;;6.13;83.00;99492.22;10477167;28;20052;-70
2022/11/20 14:30:16;;;;;;;19.17;15.07;;;;;;;6.22;82.03;99480.97;10491986;28;20059;-72
2022/11/20 14:35:23;;;;;;;15.23;13.63;;;;;;;6.31;82.16;99485.56;10491654;28;20060;-68
2022/11/20 14:40:28;;;;;;;17.23;14.60;;;;;;;6.36;82.20;99477.28;10474322;28;20772;-69
2022/11/20 14:45:29;;;;;;;16.38;14.00;;;;;;;6.35;82.28;99471.16;10499809;28;20055;-68
2022/11/20 14:50:31;;;;;;;17.38;14.18;;;;;;;6.37;82.23;99478.97;10497552;27;20326;-68
2022/11/20 14:55:35;;;;;;;17.60;14.23;;;;;;;6.40;81.96;99477.91;10499520;27;21140;-70
2022/11/20 15:00:36;;;;;;;16.20;14.00;;;;;;;6.34;82.05;99452.78;10483650;28;20063;-71
2022/11/20 15:05:47;;;;;;;16.17;14.18;;;;;;;6.28;82.61;99451.44;10506348;28;20703;-70
2022/11/20 15:10:51;;;;;;;16.50;14.25;;;;;;;6.30;82.89;99444.22;10525017;28;20156;-72
2022/11/20 15:15:54;;;;;;;16.92;14.25;;;;;;;6.28;83.15;99437.38;10520233;28;20058;-71
2022/11/20 15:20:58;;;;;;;16.50;14.70;;;;;;;6.31;83.10;99432.69;10494327;28;20062;-69
2022/11/20 15:25:59;;;;;;;19.17;15.55;;;;;;;6.31;83.50;99437.97;10498590;28;20123;-71
2022/11/20 15:31:02;;;;;;;17.42;15.18;;;;;;;6.27;83.65;99423.31;10528864;28;20052;-70
2022/11/20 15:36:04;;;;;;;17.02;14.57;;;;;;;6.27;84.04;99425.13;10531633;27;20066;-71
2022/11/20 15:41:06;;;;;;;16.13;14.40;;;;;;;6.25;84.68;99429.69;10513075;28;20540;-70
2022/11/20 15:46:15;;;;;;;17.38;14.95;;;;;;;6.25;85.16;99414.66;10498266;28;20959;-71
2022/11/20 15:51:19;;;;;;;18.55;14.82;;;;;;;6.26;85.26;99412.84;10499544;28;20051;-71
2022/11/20 15:56:21;;;;;;;16.52;14.82;;;;;;;6.29;85.24;99408.19;10478767;27;20055;-73
2022/11/20 16:01:22;;;;;;;16.95;14.00;;;;;;;6.33;85.01;99406.97;10498912;28;20058;-71
2022/11/20 16:06:23;;;;;;;17.02;13.98;;;;;;;6.41;84.98;99397.63;10498225;28;20151;-69
2022/11/20 16:11:25;;;;;;;17.15;14.73;;;;;;;6.37;85.53;99389.94;10482709;28;20044;-70
2022/11/20 16:16:33;;;;;;;16.00;12.98;;;;;;;6.39;85.27;99388.97;10515054;27;20048;-72
2022/11/20 16:21:34;;;;;;;18.20;13.38;;;;;;;6.32;85.60;99375.38;10542473;28;20056;-72
2022/11/20 16:26:36;;;;;;;16.05;13.93;;;;;;;6.37;85.34;99376.72;10545161;28;20778;-70
2022/11/20 16:31:37;;;;;;;17.27;14.30;;;;;;;6.40;85.93;99372.16;10528433;28;20052;-70
2022/11/20 16:36:41;;;;;;;15.88;13.48;;;;;;;6.45;85.58;99359.44;10533028;28;20139;-69
2022/11/20 16:41:42;;;;;;;21.38;19.17;;;;;;;6.36;85.94;99337.19;10524924;28;20075;-71
2022/11/20 16:46:43;;;;;;;23.63;21.20;;;;;;;6.34;86.51;99337.31;10525596;28;20505;-73
2022/11/20 16:51:45;;;;;;;24.83;22.58;;;;;;;6.35;86.54;99338.13;10526287;28;20097;-70
2022/11/20 16:56:47;;;;;;;21.92;18.75;;;;;;;6.37;87.01;99323.84;10517365;28;20824;-68
2022/11/20 17:01:48;;;;;;;28.25;25.85;;;;;;;6.44;86.54;99336.59;10494777;28;23071;-70
2022/11/20 17:06:50;;;;;;;17.08;14.52;;;;;;;6.45;87.01;99332.97;10498965;28;20101;-69
2022/11/20 17:11:51;;;;;;;57.08;40.45;;;;;;;6.46;87.39;99327.56;10496023;28;20078;-72
2022/11/20 17:16:53;;;;;;;31.25;24.50;;;;;;;6.52;87.95;99323.63;10490343;28;20057;-71
2022/11/20 17:21:54;;;;;;;23.20;20.77;;;;;;;6.52;88.31;99316.50;10494505;28;20044;-69
2022/11/20 17:26:55;;;;;;;18.27;14.55;;;;;;;6.57;88.28;99312.69;10494912;28;20614;-71
2022/11/20 17:31:57;;;;;;;15.82;13.82;;;;;;;6.55;88.57;99307.50;10494541;27;20544;-69
2022/11/20 17:36:58;;;;;;;14.90;13.27;;;;;;;6.55;88.08;99307.50;10479167;28;20062;-70
2022/11/20 17:47:20;;;;;;;16.65;13.77;;;;;;;6.55;88.98;99283.72;10493874;28;20058;-70
2022/11/20 17:52:21;;;;;;;18.05;14.25;;;;;;;6.53;89.20;99277.69;10492465;28;20054;-71
2022/11/20 18:02:43;;;;;;;16.75;13.65;;;;;;;6.55;90.23;99267.84;10490627;28;20639;-68
2022/11/20 18:07:44;;;;;;;16.45;14.13;;;;;;;6.64;89.67;99264.47;10493753;28;20040;-71
2022/11/20 18:12:46;;;;;;;17.13;14.68;;;;;;;6.60;90.00;99249.81;10492756;28;20663;-71
2022/11/20 18:17:47;;;;;;;22.52;18.88;;;;;;;6.66;90.27;99251.94;10489919;28;20048;-69
2022/11/20 18:22:49;;;;;;;16.85;14.55;;;;;;;6.65;90.48;99229.13;10498980;28;20162;-70
2022/11/20 18:27:50;;;;;;;19.02;15.45;;;;;;;6.68;90.67;99228.03;10501068;27;20051;-70
2022/11/20 18:32:51;;;;;;;13.65;11.57;;;;;;;6.64;90.43;99208.09;10499921;27;20066;-69
2022/11/20 18:37:53;;;;;;;16.80;12.70;;;;;;;6.72;90.92;99210.94;10499743;28;20394;-69
2022/11/20 18:48:14;;;;;;;13.38;10.77;;;;;;;6.83;91.01;99204.78;10500822;28;20186;-71
2022/11/20 18:53:16;;;;;;;10.00;7.80;;;;;;;6.76;91.31;99182.47;10500863;28;20933;-70
2022/11/20 18:58:17;;;;;;;9.48;7.43;;;;;;;6.87;91.38;99174.47;10524076;28;20176;-69
2022/11/20 19:03:18;;;;;;;8.60;5.90;;;;;;;6.91;91.42;99175.91;10508777;28;20047;-70
2022/11/20 19:08:20;;;;;;;6.22;4.47;;;;;;;6.93;92.38;99173.97;10514099;28;20055;-70
2022/11/20 19:13:21;;;;;;;4.90;3.28;;;;;;;6.88;92.71;99165.59;10507550;28;20051;-70
2022/11/20 19:18:23;;;;;;;7.78;3.78;;;;;;;6.73;94.50;99175.63;10510545;28;20054;-70
2022/11/20 19:23:24;;;;;;;5.75;3.47;;;;;;;6.62;95.35;99162.41;10500777;28;20062;-71
2022/11/20 19:28:28;;;;;;;4.53;3.00;;;;;;;6.65;96.26;99165.66;10497988;27;20200;-71
2022/11/20 19:33:31;;;;;;;4.50;2.97;;;;;;;6.64;96.21;99163.97;10498986;27;20054;-71
2022/11/20 19:38:32;;;;;;;3.53;3.00;;;;;;;6.41;97.88;99141.19;10515271;28;20048;-72
2022/11/20 19:43:34;;;;;;;5.43;3.35;;;;;;;6.44;98.98;99139.16;10521968;28;20071;-73
2022/11/20 19:48:37;;;;;;;5.30;3.33;;;;;;;6.39;99.83;99132.56;10528711;28;20056;-71
2022/11/20 19:53:38;;;;;;;5.03;3.28;;;;;;;6.52;100.00;99120.88;10504990;27;20056;-69
2022/11/20 19:58:41;;;;;;;4.78;3.42;;;;;;;6.60;98.66;99120.22;10501395;28;20352;-73
2022/11/20 20:03:43;;;;;;;4.53;3.25;;;;;;;6.54;98.69;99110.16;10499483;28;20048;-70
2022/11/20 20:08:45;;;;;;;4.65;2.85;;;;;;;6.41;98.74;99098.91;10486492;28;20165;-70
2022/11/20 20:13:47;;;;;;;5.43;2.80;;;;;;;6.43;98.75;99099.63;10505876;28;20557;-68
2022/11/20 20:18:48;;;;;;;4.32;2.50;;;;;;;6.41;98.52;99099.78;10504056;28;20520;-70
2022/11/20 20:23:52;;;;;;;3.22;2.30;;;;;;;6.39;98.80;99095.56;10497322;28;20069;-71
2022/11/20 20:28:54;;;;;;;2.75;2.40;;;;;;;6.43;98.12;99070.56;10499433;28;20212;-70
2022/11/20 20:33:56;;;;;;;3.45;2.25;;;;;;;6.41;98.14;99067.19;10505422;28;20104;-72
2022/11/20 20:38:58;;;;;;;5.40;2.30;;;;;;;6.36;97.78;99075.50;10531057;28;20521;-71
2022/11/20 20:49:20;;;;;;;4.53;2.78;;;;;;;6.33;98.17;99071.28;10523757;28;20047;-71
2022/11/20 20:54:22;;;;;;;3.35;1.83;;;;;;;6.37;97.40;99078.00;10524314;28;20087;-70
2022/11/20 20:59:23;;;;;;;2.38;1.83;;;;;;;6.28;97.21;99078.78;10524144;28;20050;-74
2022/11/20 21:04:25;;;;;;;3.08;1.70;;;;;;;6.34;97.36;99078.25;10520136;28;20086;-70
2022/11/20 21:09:27;;;;;;;2.22;1.73;;;;;;;6.43;97.36;99075.84;10527871;28;20354;-73
2022/11/20 21:14:29;;;;;;;2.35;1.65;;;;;;;6.44;97.14;99088.09;10528649;27;20063;-71
2022/11/20 21:19:31;;;;;;;2.20;1.42;;;;;;;6.46;96.96;99075.59;10526161;28;20052;-71
2022/11/20 21:24:34;;;;;;;2.72;1.58;;;;;;;6.37;96.73;99067.44;10522056;28;20660;-73
2022/11/20 21:29:35;;;;;;;2.78;1.20;;;;;;;6.26;96.86;99056.06;10525319;28;20066;-71
2022/11/20 21:34:37;;;;;;;1.15;0.98;;;;;;;6.17;96.70;99057.66;10523346;28;20277;-70
2022/11/20 21:39:49;;;;;;;2.50;1.10;;;;;;;6.17;97.30;99062.94;10526922;28;20048;-71
2022/11/20 21:44:50;;;;;;;2.85;1.10;;;;;;;6.13;96.75;99064.16;10527280;28;20143;-72
2022/11/20 21:49:52;;;;;;;2.55;0.70;;;;;;;6.11;96.40;99076.66;10520539;28;20098;-70
2022/11/20 21:54:53;;;;;;;1.33;0.85;;;;;;;6.19;95.72;99068.94;10526432;28;20051;-70
2022/11/20 21:59:54;;;;;;;1.05;0.55;;;;;;;6.18;95.12;99067.25;10513563;28;20054;-73
2022/11/20 22:04:56;;;;;;;3.13;0.82;;;;;;;6.16;95.63;99067.38;10522972;28;20048;-71
2022/11/20 22:09:57;;;;;;;1.38;0.80;;;;;;;6.11;96.43;99060.78;10523183;28;20123;-70
2022/11/20 22:14:58;;;;;;;1.05;0.80;;;;;;;6.16;96.07;99054.19;10525166;28;20048;-70
2022/11/20 22:19:59;;;;;;;2.83;1.02;;;;;;;6.13;96.06;99035.09;10564476;28;20063;-72
2022/11/20 22:25:01;;;;;;;2.03;0.98;;;;;;;6.09;96.75;99041.59;10540276;28;20059;-71
2022/11/20 22:30:02;;;;;;;3.47;1.25;;;;;;;6.05;96.93;99041.00;10525920;28;20062;-71
2022/11/20 22:35:04;;;;;;;2.33;1.23;;;;;;;6.11;96.82;99056.38;10525134;28;20122;-72
2022/11/20 22:40:07;;;;;;;2.28;1.08;;;;;;;6.12;97.21;99051.91;10554319;28;20044;-72
2022/11/20 22:45:09;;;;;;;1.70;1.00;;;;;;;6.10;97.02;99049.41;10535625;28;20048;-73
2022/11/20 22:50:11;;;;;;;2.67;0.82;;;;;;;6.08;97.29;99045.19;10528288;28;20058;-70
2022/11/20 22:55:12;;;;;;;2.15;1.13;;;;;;;6.08;96.66;99039.91;10523053;28;20047;-70
2022/11/20 23:00:17;;;;;;;2.50;1.10;;;;;;;6.11;96.69;99039.66;10523828;28;20050;-69
2022/11/20 23:05:18;;;;;;;2.85;1.20;;;;;;;6.13;96.82;99035.09;10523634;28;20053;-70
2022/11/20 23:10:20;;;;;;;2.75;1.10;;;;;;;6.09;96.89;99031.03;10530697;28;20040;-70
2022/11/20 23:15:21;;;;;;;1.88;1.17;;;;;;;6.12;97.24;99036.06;10529486;28;20051;-70
2022/11/20 23:20:22;;;;;;;2.42;1.00;;;;;;;6.13;96.80;99037.75;10533634;28;20049;-69
2022/11/20 23:25:24;;;;;;;5.40;1.13;;;;;;;6.16;96.68;99042.78;10530925;28;20058;-69
2022/11/20 23:30:25;;;;;;;2.13;1.48;;;;;;;6.15;95.51;99039.28;10526927;28;20063;-70
2022/11/20 23:35:26;;;;;;;4.68;1.70;;;;;;;6.18;95.58;99046.97;10531510;27;20044;-69
2022/11/20 23:40:28;;;;;;;2.30;1.15;;;;;;;6.21;94.95;99050.34;10506776;28;20049;-71
2022/11/20 23:45:29;;;;;;;3.08;0.93;;;;;;;6.23;93.97;99037.81;10525943;28;20051;-73
2022/11/20 23:50:31;;;;;;;2.72;0.80;;;;;;;6.26;93.55;99042.84;10529055;28;20047;-71
2022/11/20 23:55:32;;;;;;;4.00;1.02;;;;;;;6.32;92.15;99042.34;10529483;28;20466;-71
